Terminal Aerodrome Forecast
Issued by NWS

Home | Current Version | Previous Version | Text Only | Print | Product List | Glossary On
Versions: 1 2 3 4 5 6 7 8 9 10 11 12 13 14 15
000
FTUS44 KJAN 261722
TAFGTR
TAF
KGTR 261722Z 2618/2718 24006KT P6SM VCSH SCT030
     FM262000 32014G20KT 6SM -SHRA OVC035
     FM270000 35012KT P6SM -RA OVC015
     FM270900 34005KT P6SM BKN050
     FM271500 35008KT P6SM BKN250=

USA.gov is the U.S. government's official web portal to all federal, state and local government web resources and services.